sensor_id;sensor_type;location;lat;lon;timestamp;pressure;altitude;pressure_sealevel;temperature;humidity
14790;BME280;7486;51.010;10.366;2023-04-26T00:01:51;98316.34;;;2.08;67.28
14790;BME280;7486;51.010;10.366;2023-04-26T00:04:40;98318.50;;;2.12;67.15
14790;BME280;7486;51.010;10.366;2023-04-26T00:07:26;98326.28;;;2.22;66.69
14790;BME280;7486;51.010;10.366;2023-04-26T00:10:12;98324.63;;;2.21;66.58
14790;BME280;7486;51.010;10.366;2023-04-26T00:12:57;98292.75;;;1.82;67.13
14790;BME280;7486;51.010;10.366;2023-04-26T00:15:42;98329.69;;;2.23;66.24
14790;BME280;7486;51.010;10.366;2023-04-26T00:18:28;98302.28;;;2.27;65.47
14790;BME280;7486;51.010;10.366;2023-04-26T00:21:13;98323.16;;;2.44;64.47
14790;BME280;7486;51.010;10.366;2023-04-26T00:23:59;98336.34;;;2.35;64.59
14790;BME280;7486;51.010;10.366;2023-04-26T00:26:44;98329.63;;;2.14;65.98
14790;BME280;7486;51.010;10.366;2023-04-26T00:29:29;98334.78;;;2.24;65.51
14790;BME280;7486;51.010;10.366;2023-04-26T00:32:14;98325.66;;;2.28;65.09
14790;BME280;7486;51.010;10.366;2023-04-26T00:35:02;98337.81;;;2.20;65.29
14790;BME280;7486;51.010;10.366;2023-04-26T00:37:47;98336.50;;;2.16;65.35
14790;BME280;7486;51.010;10.366;2023-04-26T00:40:33;98339.56;;;2.11;65.50
14790;BME280;7486;51.010;10.366;2023-04-26T00:43:18;98342.25;;;2.01;66.22
14790;BME280;7486;51.010;10.366;2023-04-26T00:46:03;98345.16;;;1.98;66.50
14790;BME280;7486;51.010;10.366;2023-04-26T00:48:49;98298.88;;;1.73;65.90
14790;BME280;7486;51.010;10.366;2023-04-26T00:51:35;98335.44;;;1.91;66.36
14790;BME280;7486;51.010;10.366;2023-04-26T00:54:21;98331.72;;;1.93;66.44
14790;BME280;7486;51.010;10.366;2023-04-26T00:57:06;98334.41;;;2.01;65.86
14790;BME280;7486;51.010;10.366;2023-04-26T00:59:52;98336.72;;;2.04;66.08
14790;BME280;7486;51.010;10.366;2023-04-26T01:02:37;98311.56;;;1.86;65.30
14790;BME280;7486;51.010;10.366;2023-04-26T01:05:23;98323.44;;;1.98;65.60
14790;BME280;7486;51.010;10.366;2023-04-26T01:08:09;98331.09;;;1.99;65.21
14790;BME280;7486;51.010;10.366;2023-04-26T01:14:43;98341.47;;;1.74;65.44
14790;BME280;7486;51.010;10.366;2023-04-26T01:17:28;98342.09;;;1.58;66.53
14790;BME280;7486;51.010;10.366;2023-04-26T01:20:14;98350.16;;;1.47;67.93
14790;BME280;7486;51.010;10.366;2023-04-26T01:22:59;98354.81;;;1.16;68.42
14790;BME280;7486;51.010;10.366;2023-04-26T01:25:45;98346.09;;;0.98;69.71
14790;BME280;7486;51.010;10.366;2023-04-26T01:28:30;98345.69;;;0.93;70.13
14790;BME280;7486;51.010;10.366;2023-04-26T01:31:15;98354.06;;;0.87;70.34
14790;BME280;7486;51.010;10.366;2023-04-26T01:34:01;98352.31;;;0.68;71.05
14790;BME280;7486;51.010;10.366;2023-04-26T01:36:46;98257.69;;;-0.17;72.76
14790;BME280;7486;51.010;10.366;2023-04-26T01:39:32;98315.63;;;0.04;73.44
14790;BME280;7486;51.010;10.366;2023-04-26T01:42:18;98357.69;;;0.28;73.76
14790;BME280;7486;51.010;10.366;2023-04-26T01:45:03;98357.28;;;0.33;73.56
14790;BME280;7486;51.010;10.366;2023-04-26T01:48:09;98360.03;;;0.22;74.24
14790;BME280;7486;51.010;10.366;2023-04-26T01:50:54;98349.47;;;0.23;74.46
14790;BME280;7486;51.010;10.366;2023-04-26T01:53:39;98346.31;;;0.29;74.05
14790;BME280;7486;51.010;10.366;2023-04-26T01:56:25;98351.13;;;0.34;73.77
14790;BME280;7486;51.010;10.366;2023-04-26T01:59:10;98353.16;;;0.40;73.82
14790;BME280;7486;51.010;10.366;2023-04-26T02:01:56;98352.09;;;0.23;73.72
14790;BME280;7486;51.010;10.366;2023-04-26T02:04:41;98303.81;;;-0.10;74.58
14790;BME280;7486;51.010;10.366;2023-04-26T02:07:27;98344.84;;;0.17;74.09
14790;BME280;7486;51.010;10.366;2023-04-26T02:10:13;98346.84;;;0.42;73.26
14790;BME280;7486;51.010;10.366;2023-04-26T02:12:58;98326.84;;;0.33;72.78
14790;BME280;7486;51.010;10.366;2023-04-26T02:15:50;98352.06;;;0.61;72.13
14790;BME280;7486;51.010;10.366;2023-04-26T02:18:36;98344.06;;;0.73;71.41
14790;BME280;7486;51.010;10.366;2023-04-26T02:21:21;98345.19;;;0.60;71.14
14790;BME280;7486;51.010;10.366;2023-04-26T02:24:07;98338.59;;;0.66;71.54
14790;BME280;7486;51.010;10.366;2023-04-26T02:26:53;98261.03;;;0.22;70.12
14790;BME280;7486;51.010;10.366;2023-04-26T02:29:38;98344.59;;;0.76;70.19
14790;BME280;7486;51.010;10.366;2023-04-26T02:32:29;98349.06;;;0.47;70.33
14790;BME280;7486;51.010;10.366;2023-04-26T02:35:14;98346.34;;;0.20;71.54
14790;BME280;7486;51.010;10.366;2023-04-26T02:38:00;98349.63;;;0.02;72.82
14790;BME280;7486;51.010;10.366;2023-04-26T02:40:46;98351.78;;;-0.03;72.94
14790;BME280;7486;51.010;10.366;2023-04-26T02:43:33;98354.94;;;-0.09;73.76
14790;BME280;7486;51.010;10.366;2023-04-26T02:46:18;98299.28;;;-0.46;73.73
14790;BME280;7486;51.010;10.366;2023-04-26T02:49:03;98352.06;;;-0.06;73.42
14790;BME280;7486;51.010;10.366;2023-04-26T02:51:48;98342.19;;;0.07;73.03
14790;BME280;7486;51.010;10.366;2023-04-26T02:54:34;98344.66;;;-0.10;73.63
14790;BME280;7486;51.010;10.366;2023-04-26T02:57:20;98342.50;;;0.24;72.72
14790;BME280;7486;51.010;10.366;2023-04-26T03:00:07;98310.97;;;0.17;71.62
14790;BME280;7486;51.010;10.366;2023-04-26T03:02:53;98346.28;;;0.48;71.42
14790;BME280;7486;51.010;10.366;2023-04-26T03:05:39;98328.47;;;0.34;71.21
14790;BME280;7486;51.010;10.366;2023-04-26T03:08:24;98362.22;;;0.45;70.74
14790;BME280;7486;51.010;10.366;2023-04-26T03:11:10;98351.50;;;0.48;70.10
14790;BME280;7486;51.010;10.366;2023-04-26T03:13:55;98351.25;;;0.32;70.24
14790;BME280;7486;51.010;10.366;2023-04-26T03:16:41;98338.38;;;0.11;69.77
14790;BME280;7486;51.010;10.366;2023-04-26T03:19:26;98299.72;;;-0.22;69.56
14790;BME280;7486;51.010;10.366;2023-04-26T03:22:12;98359.06;;;0.03;69.51
14790;BME280;7486;51.010;10.366;2023-04-26T03:24:58;98363.59;;;0.01;71.03
14790;BME280;7486;51.010;10.366;2023-04-26T03:27:45;98356.19;;;0.16;70.49
14790;BME280;7486;51.010;10.366;2023-04-26T03:30:30;98353.19;;;0.30;70.90
14790;BME280;7486;51.010;10.366;2023-04-26T03:33:16;98240.66;;;-0.41;70.20
14790;BME280;7486;51.010;10.366;2023-04-26T03:36:01;98362.78;;;0.39;70.37
14790;BME280;7486;51.010;10.366;2023-04-26T03:38:47;98360.16;;;0.39;69.71
14790;BME280;7486;51.010;10.366;2023-04-26T03:41:34;98361.13;;;0.38;69.22
14790;BME280;7486;51.010;10.366;2023-04-26T03:44:22;98363.59;;;0.30;69.74
14790;BME280;7486;51.010;10.366;2023-04-26T03:47:07;98366.06;;;0.32;69.57
14790;BME280;7486;51.010;10.366;2023-04-26T03:49:52;98365.94;;;0.33;69.13
14790;BME280;7486;51.010;10.366;2023-04-26T03:52:37;98374.41;;;0.35;69.42
14790;BME280;7486;51.010;10.366;2023-04-26T03:55:23;98347.72;;;0.24;68.82
14790;BME280;7486;51.010;10.366;2023-04-26T03:58:08;98370.16;;;0.34;67.94
14790;BME280;7486;51.010;10.366;2023-04-26T04:00:57;98328.22;;;-0.01;67.26
14790;BME280;7486;51.010;10.366;2023-04-26T04:03:43;98370.19;;;0.05;68.06
14790;BME280;7486;51.010;10.366;2023-04-26T04:06:29;98372.63;;;-0.03;67.82
14790;BME280;7486;51.010;10.366;2023-04-26T04:09:15;98368.41;;;-0.04;68.44
14790;BME280;7486;51.010;10.366;2023-04-26T04:12:00;98372.63;;;-0.03;68.62
14790;BME280;7486;51.010;10.366;2023-04-26T04:14:45;98310.78;;;-0.39;68.37
14790;BME280;7486;51.010;10.366;2023-04-26T04:17:31;98354.94;;;-0.18;67.94
14790;BME280;7486;51.010;10.366;2023-04-26T04:20:16;98298.84;;;-0.51;68.36
14790;BME280;7486;51.010;10.366;2023-04-26T04:23:02;98361.94;;;-0.09;68.49
14790;BME280;7486;51.010;10.366;2023-04-26T04:25:47;98370.94;;;-0.23;68.88
14790;BME280;7486;51.010;10.366;2023-04-26T04:28:33;98369.06;;;-0.02;69.76
14790;BME280;7486;51.010;10.366;2023-04-26T04:31:18;98372.34;;;0.00;68.27
14790;BME280;7486;51.010;10.366;2023-04-26T04:34:04;98344.09;;;-0.14;69.33
14790;BME280;7486;51.010;10.366;2023-04-26T04:36:51;98335.91;;;0.10;70.24
14790;BME280;7486;51.010;10.366;2023-04-26T04:39:37;98329.06;;;0.09;69.73
14790;BME280;7486;51.010;10.366;2023-04-26T04:42:22;98378.81;;;0.06;70.79
14790;BME280;7486;51.010;10.366;2023-04-26T04:45:09;98369.34;;;-0.14;72.04
14790;BME280;7486;51.010;10.366;2023-04-26T04:47:56;98378.38;;;-0.09;73.59
14790;BME280;7486;51.010;10.366;2023-04-26T04:50:43;98370.13;;;-0.14;73.59
14790;BME280;7486;51.010;10.366;2023-04-26T04:53:29;98383.56;;;-0.18;73.18
14790;BME280;7486;51.010;10.366;2023-04-26T04:56:14;98390.28;;;-0.06;73.91
14790;BME280;7486;51.010;10.366;2023-04-26T04:59:00;98378.50;;;-0.10;72.87
14790;BME280;7486;51.010;10.366;2023-04-26T05:01:45;98391.28;;;0.12;74.49
14790;BME280;7486;51.010;10.366;2023-04-26T05:04:32;98395.41;;;0.34;75.21
14790;BME280;7486;51.010;10.366;2023-04-26T05:07:17;98390.47;;;0.59;73.57
14790;BME280;7486;51.010;10.366;2023-04-26T05:10:03;98378.06;;;1.00;73.19
14790;BME280;7486;51.010;10.366;2023-04-26T05:12:48;98400.25;;;1.23;71.41
14790;BME280;7486;51.010;10.366;2023-04-26T05:15:34;98397.66;;;1.50;72.12
14790;BME280;7486;51.010;10.366;2023-04-26T05:18:19;98397.97;;;1.92;70.47
14790;BME280;7486;51.010;10.366;2023-04-26T05:21:06;98400.38;;;2.03;69.75
14790;BME280;7486;51.010;10.366;2023-04-26T05:23:51;98403.25;;;2.28;69.87
14790;BME280;7486;51.010;10.366;2023-04-26T05:26:36;98409.13;;;2.47;68.34
14790;BME280;7486;51.010;10.366;2023-04-26T05:29:41;98402.94;;;2.66;67.83
14790;BME280;7486;51.010;10.366;2023-04-26T05:32:42;98415.91;;;2.76;68.02
14790;BME280;7486;51.010;10.366;2023-04-26T05:35:32;98414.13;;;3.02;67.03
14790;BME280;7486;51.010;10.366;2023-04-26T05:38:18;98412.69;;;3.25;66.23
14790;BME280;7486;51.010;10.366;2023-04-26T05:41:04;98422.63;;;3.22;65.69
14790;BME280;7486;51.010;10.366;2023-04-26T05:43:49;98324.00;;;2.71;65.12
14790;BME280;7486;51.010;10.366;2023-04-26T05:46:35;98385.16;;;3.21;65.88
14790;BME280;7486;51.010;10.366;2023-04-26T05:49:20;98426.91;;;3.48;66.48
14790;BME280;7486;51.010;10.366;2023-04-26T05:52:06;98427.03;;;3.81;65.49
14790;BME280;7486;51.010;10.366;2023-04-26T05:54:52;98427.34;;;3.78;65.88
14790;BME280;7486;51.010;10.366;2023-04-26T05:57:38;98367.00;;;3.53;64.55
14790;BME280;7486;51.010;10.366;2023-04-26T06:00:24;98435.22;;;3.78;65.12
14790;BME280;7486;51.010;10.366;2023-04-26T06:03:09;98422.56;;;4.07;64.11
14790;BME280;7486;51.010;10.366;2023-04-26T06:05:55;98415.38;;;4.25;63.29
14790;BME280;7486;51.010;10.366;2023-04-26T06:08:41;98377.00;;;4.16;62.02
14790;BME280;7486;51.010;10.366;2023-04-26T06:11:28;98432.59;;;4.36;62.46
14790;BME280;7486;51.010;10.366;2023-04-26T06:14:13;98436.41;;;4.57;62.85
14790;BME280;7486;51.010;10.366;2023-04-26T06:17:14;98354.09;;;4.42;61.62
14790;BME280;7486;51.010;10.366;2023-04-26T06:20:00;98429.84;;;5.26;60.96
14790;BME280;7486;51.010;10.366;2023-04-26T06:22:46;98429.03;;;4.85;60.92
14790;BME280;7486;51.010;10.366;2023-04-26T06:25:31;98428.84;;;5.11;61.37
14790;BME280;7486;51.010;10.366;2023-04-26T06:28:17;98434.28;;;5.17;60.47
14790;BME280;7486;51.010;10.366;2023-04-26T06:31:03;98434.63;;;5.06;61.36
14790;BME280;7486;51.010;10.366;2023-04-26T06:33:49;98428.06;;;5.18;59.95
14790;BME280;7486;51.010;10.366;2023-04-26T06:36:37;98444.28;;;5.06;59.26
14790;BME280;7486;51.010;10.366;2023-04-26T06:39:23;98444.44;;;5.21;59.28
14790;BME280;7486;51.010;10.366;2023-04-26T06:42:09;98440.31;;;5.50;59.79
14790;BME280;7486;51.010;10.366;2023-04-26T06:45:27;98445.97;;;5.78;57.66
14790;BME280;7486;51.010;10.366;2023-04-26T06:48:12;98450.03;;;5.89;57.75
14790;BME280;7486;51.010;10.366;2023-04-26T06:50:58;98452.72;;;5.73;57.14
14790;BME280;7486;51.010;10.366;2023-04-26T06:53:43;98447.44;;;5.81;56.74
14790;BME280;7486;51.010;10.366;2023-04-26T06:56:28;98446.16;;;5.68;58.09
14790;BME280;7486;51.010;10.366;2023-04-26T06:59:14;98450.47;;;5.61;57.51
14790;BME280;7486;51.010;10.366;2023-04-26T07:01:59;98444.88;;;5.48;56.57
14790;BME280;7486;51.010;10.366;2023-04-26T07:04:44;98453.97;;;5.05;59.72
14790;BME280;7486;51.010;10.366;2023-04-26T07:07:30;98454.91;;;4.56;58.25
14790;BME280;7486;51.010;10.366;2023-04-26T07:10:15;98454.78;;;4.82;61.67
14790;BME280;7486;51.010;10.366;2023-04-26T07:13:00;98443.16;;;5.16;59.43
14790;BME280;7486;51.010;10.366;2023-04-26T07:15:45;98465.13;;;5.32;57.34
14790;BME280;7486;51.010;10.366;2023-04-26T07:18:31;98461.03;;;5.05;57.78
14790;BME280;7486;51.010;10.366;2023-04-26T07:21:16;98458.41;;;5.29;57.66
14790;BME280;7486;51.010;10.366;2023-04-26T07:24:03;98457.56;;;5.37;58.10
14790;BME280;7486;51.010;10.366;2023-04-26T07:26:49;98452.19;;;5.22;56.83
14790;BME280;7486;51.010;10.366;2023-04-26T07:29:34;98465.00;;;5.17;56.30
14790;BME280;7486;51.010;10.366;2023-04-26T07:32:20;98459.38;;;5.12;55.44
14790;BME280;7486;51.010;10.366;2023-04-26T07:35:06;98458.22;;;4.98;56.78
14790;BME280;7486;51.010;10.366;2023-04-26T07:37:51;98447.59;;;5.00;55.29
14790;BME280;7486;51.010;10.366;2023-04-26T07:40:36;98451.00;;;5.08;54.67
14790;BME280;7486;51.010;10.366;2023-04-26T07:43:22;98450.53;;;5.37;51.85
14790;BME280;7486;51.010;10.366;2023-04-26T07:46:07;98453.16;;;5.84;54.29
14790;BME280;7486;51.010;10.366;2023-04-26T07:48:53;98454.50;;;5.80;53.34
14790;BME280;7486;51.010;10.366;2023-04-26T07:51:38;98458.50;;;5.68;54.16
14790;BME280;7486;51.010;10.366;2023-04-26T07:54:24;98460.34;;;5.11;51.81
14790;BME280;7486;51.010;10.366;2023-04-26T07:57:09;98458.72;;;4.94;55.60
14790;BME280;7486;51.010;10.366;2023-04-26T07:59:55;98462.66;;;5.06;56.54
14790;BME280;7486;51.010;10.366;2023-04-26T08:02:40;98464.09;;;5.65;53.87
14790;BME280;7486;51.010;10.366;2023-04-26T08:05:29;98460.69;;;5.40;51.80
14790;BME280;7486;51.010;10.366;2023-04-26T08:08:15;98463.28;;;5.48;51.90
14790;BME280;7486;51.010;10.366;2023-04-26T08:11:06;98445.09;;;5.86;52.71
14790;BME280;7486;51.010;10.366;2023-04-26T08:13:52;98450.25;;;6.41;50.37
14790;BME280;7486;51.010;10.366;2023-04-26T08:16:38;98459.22;;;6.24;49.07
14790;BME280;7486;51.010;10.366;2023-04-26T08:19:23;98464.00;;;6.20;50.31
14790;BME280;7486;51.010;10.366;2023-04-26T08:22:08;98460.03;;;6.24;48.84
14790;BME280;7486;51.010;10.366;2023-04-26T08:24:54;98461.47;;;6.04;50.58
14790;BME280;7486;51.010;10.366;2023-04-26T08:27:41;98458.09;;;6.26;46.87
14790;BME280;7486;51.010;10.366;2023-04-26T08:30:27;98391.31;;;6.27;50.01
14790;BME280;7486;51.010;10.366;2023-04-26T08:33:12;98384.59;;;6.47;46.43
14790;BME280;7486;51.010;10.366;2023-04-26T08:35:58;98442.25;;;6.88;43.64
14790;BME280;7486;51.010;10.366;2023-04-26T08:38:44;98454.16;;;6.76;47.02
14790;BME280;7486;51.010;10.366;2023-04-26T08:41:35;98447.56;;;6.80;47.38
14790;BME280;7486;51.010;10.366;2023-04-26T08:44:22;98455.22;;;6.89;45.90
14790;BME280;7486;51.010;10.366;2023-04-26T08:47:22;98448.00;;;6.60;46.41
14790;BME280;7486;51.010;10.366;2023-04-26T08:50:13;98452.91;;;6.63;45.48
14790;BME280;7486;51.010;10.366;2023-04-26T08:52:59;98448.75;;;6.46;48.31
14790;BME280;7486;51.010;10.366;2023-04-26T08:55:48;98451.41;;;6.38;47.27
14790;BME280;7486;51.010;10.366;2023-04-26T08:58:34;98444.50;;;6.37;48.98
14790;BME280;7486;51.010;10.366;2023-04-26T09:01:19;98444.81;;;6.19;47.95
14790;BME280;7486;51.010;10.366;2023-04-26T09:04:06;98454.00;;;5.77;48.77
14790;BME280;7486;51.010;10.366;2023-04-26T09:06:52;98452.94;;;6.02;51.37
14790;BME280;7486;51.010;10.366;2023-04-26T09:09:43;98451.34;;;6.24;48.47
14790;BME280;7486;51.010;10.366;2023-04-26T09:12:31;98449.28;;;6.11;45.44
14790;BME280;7486;51.010;10.366;2023-04-26T09:15:17;98446.41;;;5.90;44.91
14790;BME280;7486;51.010;10.366;2023-04-26T09:18:19;98453.09;;;5.53;46.98
14790;BME280;7486;51.010;10.366;2023-04-26T09:21:06;98456.66;;;5.68;48.51
14790;BME280;7486;51.010;10.366;2023-04-26T09:24:01;98435.63;;;5.77;46.68
14790;BME280;7486;51.010;10.366;2023-04-26T09:26:59;98457.25;;;5.87;45.43
14790;BME280;7486;51.010;10.366;2023-04-26T09:30:01;98462.16;;;5.90;46.75
14790;BME280;7486;51.010;10.366;2023-04-26T09:32:51;98452.38;;;6.14;47.39
14790;BME280;7486;51.010;10.366;2023-04-26T09:35:38;98458.78;;;5.81;46.12
14790;BME280;7486;51.010;10.366;2023-04-26T09:38:23;98441.06;;;5.67;46.61
14790;BME280;7486;51.010;10.366;2023-04-26T09:41:08;98460.63;;;5.64;48.71
14790;BME280;7486;51.010;10.366;2023-04-26T09:43:54;98459.28;;;5.68;48.37
14790;BME280;7486;51.010;10.366;2023-04-26T09:46:39;98451.72;;;5.74;48.93
14790;BME280;7486;51.010;10.366;2023-04-26T09:49:26;98460.09;;;6.16;48.10
14790;BME280;7486;51.010;10.366;2023-04-26T09:52:12;98454.59;;;5.95;46.15
14790;BME280;7486;51.010;10.366;2023-04-26T09:54:57;98453.50;;;5.81;45.49
14790;BME280;7486;51.010;10.366;2023-04-26T09:57:43;98458.38;;;5.45;46.61
14790;BME280;7486;51.010;10.366;2023-04-26T10:00:28;98396.38;;;5.12;47.00
14790;BME280;7486;51.010;10.366;2023-04-26T10:03:17;98453.72;;;5.63;47.01
14790;BME280;7486;51.010;10.366;2023-04-26T10:06:03;98456.00;;;5.66;49.16
14790;BME280;7486;51.010;10.366;2023-04-26T10:08:49;98461.91;;;5.77;49.55
14790;BME280;7486;51.010;10.366;2023-04-26T10:11:36;98454.47;;;5.88;46.59
14790;BME280;7486;51.010;10.366;2023-04-26T10:14:24;98438.09;;;5.78;45.70
14790;BME280;7486;51.010;10.366;2023-04-26T10:17:11;98452.34;;;6.23;43.35
14790;BME280;7486;51.010;10.366;2023-04-26T10:19:57;98446.78;;;6.17;45.20
14790;BME280;7486;51.010;10.366;2023-04-26T10:22:50;98395.72;;;5.73;44.70
14790;BME280;7486;51.010;10.366;2023-04-26T10:25:39;98446.28;;;6.14;44.72
14790;BME280;7486;51.010;10.366;2023-04-26T10:40:44;98446.81;;;6.71;43.47
14790;BME280;7486;51.010;10.366;2023-04-26T10:43:30;98371.66;;;6.15;42.02
14790;BME280;7486;51.010;10.366;2023-04-26T10:46:40;98443.03;;;6.12;43.11
14790;BME280;7486;51.010;10.366;2023-04-26T10:49:25;98440.06;;;6.15;44.67
14790;BME280;7486;51.010;10.366;2023-04-26T10:52:16;98418.88;;;6.08;46.68
14790;BME280;7486;51.010;10.366;2023-04-26T10:55:01;98445.41;;;6.30;44.83
14790;BME280;7486;51.010;10.366;2023-04-26T10:57:52;98443.25;;;6.33;43.67
14790;BME280;7486;51.010;10.366;2023-04-26T11:00:38;98439.22;;;6.45;45.18
14790;BME280;7486;51.010;10.366;2023-04-26T11:03:23;98441.09;;;6.59;45.07
14790;BME280;7486;51.010;10.366;2023-04-26T11:06:09;98414.22;;;6.72;43.75
14790;BME280;7486;51.010;10.366;2023-04-26T11:08:54;98437.72;;;6.96;44.40
14790;BME280;7486;51.010;10.366;2023-04-26T11:11:50;98437.09;;;6.94;43.21
14790;BME280;7486;51.010;10.366;2023-04-26T11:14:35;98380.19;;;6.71;41.58
14790;BME280;7486;51.010;10.366;2023-04-26T11:17:21;98376.22;;;6.75;43.75
14790;BME280;7486;51.010;10.366;2023-04-26T11:20:15;98420.44;;;7.46;42.96
14790;BME280;7486;51.010;10.366;2023-04-26T11:23:00;98428.78;;;7.93;41.71
14790;BME280;7486;51.010;10.366;2023-04-26T11:25:46;98416.69;;;7.99;40.91
14790;BME280;7486;51.010;10.366;2023-04-26T11:28:33;98347.09;;;7.20;42.05
14790;BME280;7486;51.010;10.366;2023-04-26T11:31:19;98415.53;;;7.43;40.03
14790;BME280;7486;51.010;10.366;2023-04-26T11:34:04;98414.53;;;7.58;42.52
14790;BME280;7486;51.010;10.366;2023-04-26T11:36:50;98412.34;;;7.77;40.47
14790;BME280;7486;51.010;10.366;2023-04-26T11:39:36;98326.22;;;7.18;40.75
14790;BME280;7486;51.010;10.366;2023-04-26T11:42:24;98406.63;;;7.58;41.64
14790;BME280;7486;51.010;10.366;2023-04-26T11:45:10;98394.34;;;7.65;42.40
14790;BME280;7486;51.010;10.366;2023-04-26T11:47:56;98394.22;;;7.88;41.35
14790;BME280;7486;51.010;10.366;2023-04-26T11:50:42;98403.75;;;8.04;39.25
14790;BME280;7486;51.010;10.366;2023-04-26T11:53:35;98378.09;;;8.12;41.26
14790;BME280;7486;51.010;10.366;2023-04-26T11:56:20;98361.50;;;7.97;40.01
14790;BME280;7486;51.010;10.366;2023-04-26T11:59:06;98410.03;;;8.03;40.50
14790;BME280;7486;51.010;10.366;2023-04-26T12:01:51;98415.88;;;8.13;38.79
14790;BME280;7486;51.010;10.366;2023-04-26T12:04:39;98388.50;;;6.97;38.90
14790;BME280;7486;51.010;10.366;2023-04-26T12:07:25;98420.72;;;6.99;40.37
14790;BME280;7486;51.010;10.366;2023-04-26T12:10:18;98409.72;;;6.81;39.92
14790;BME280;7486;51.010;10.366;2023-04-26T12:13:04;98419.47;;;6.49;43.16
14790;BME280;7486;51.010;10.366;2023-04-26T12:15:49;98427.31;;;6.80;42.26
14790;BME280;7486;51.010;10.366;2023-04-26T12:18:35;98425.25;;;6.90;42.98
14790;BME280;7486;51.010;10.366;2023-04-26T12:21:20;98397.78;;;7.07;40.90
14790;BME280;7486;51.010;10.366;2023-04-26T12:24:06;98416.69;;;7.40;42.19
14790;BME280;7486;51.010;10.366;2023-04-26T12:26:52;98416.19;;;7.59;41.75
14790;BME280;7486;51.010;10.366;2023-04-26T12:29:37;98411.44;;;7.40;43.65
14790;BME280;7486;51.010;10.366;2023-04-26T12:32:23;98416.16;;;7.15;40.87
14790;BME280;7486;51.010;10.366;2023-04-26T12:35:09;98403.06;;;7.22;44.25
14790;BME280;7486;51.010;10.366;2023-04-26T12:37:55;98410.91;;;7.59;42.04
14790;BME280;7486;51.010;10.366;2023-04-26T12:40:41;98398.72;;;7.29;42.65
14790;BME280;7486;51.010;10.366;2023-04-26T12:43:31;98402.44;;;7.64;40.50
14790;BME280;7486;51.010;10.366;2023-04-26T12:46:16;98403.63;;;7.32;42.47
14790;BME280;7486;51.010;10.366;2023-04-26T12:49:02;98408.88;;;7.91;42.89
14790;BME280;7486;51.010;10.366;2023-04-26T12:51:47;98405.41;;;8.41;41.23
14790;BME280;7486;51.010;10.366;2023-04-26T12:54:33;98406.22;;;8.20;39.90
14790;BME280;7486;51.010;10.366;2023-04-26T12:57:18;98376.50;;;7.82;39.02
14790;BME280;7486;51.010;10.366;2023-04-26T13:00:05;98347.88;;;7.79;40.33
14790;BME280;7486;51.010;10.366;2023-04-26T13:02:51;98416.13;;;8.18;43.38
14790;BME280;7486;51.010;10.366;2023-04-26T13:05:36;98343.44;;;7.80;40.42
14790;BME280;7486;51.010;10.366;2023-04-26T13:08:22;98410.53;;;8.42;40.06
14790;BME280;7486;51.010;10.366;2023-04-26T13:11:07;98408.00;;;8.34;41.00
14790;BME280;7486;51.010;10.366;2023-04-26T13:13:53;98411.91;;;8.38;40.88
14790;BME280;7486;51.010;10.366;2023-04-26T13:16:38;98406.19;;;8.05;40.18
14790;BME280;7486;51.010;10.366;2023-04-26T13:19:23;98409.03;;;8.04;42.18
14790;BME280;7486;51.010;10.366;2023-04-26T13:22:09;98417.69;;;8.12;42.33
14790;BME280;7486;51.010;10.366;2023-04-26T13:24:55;98360.75;;;7.89;38.76
14790;BME280;7486;51.010;10.366;2023-04-26T13:27:40;98413.34;;;7.61;40.56
14790;BME280;7486;51.010;10.366;2023-04-26T13:30:26;98411.81;;;7.37;39.67
14790;BME280;7486;51.010;10.366;2023-04-26T13:33:11;98407.44;;;7.74;42.41
14790;BME280;7486;51.010;10.366;2023-04-26T13:35:57;98403.34;;;7.86;41.67
14790;BME280;7486;51.010;10.366;2023-04-26T13:38:43;98409.22;;;7.88;41.01
14790;BME280;7486;51.010;10.366;2023-04-26T13:41:28;98404.31;;;8.14;39.84
14790;BME280;7486;51.010;10.366;2023-04-26T13:44:13;98402.13;;;8.03;39.71
14790;BME280;7486;51.010;10.366;2023-04-26T13:46:59;98407.16;;;7.68;39.90
14790;BME280;7486;51.010;10.366;2023-04-26T13:49:44;98362.03;;;7.42;40.91
14790;BME280;7486;51.010;10.366;2023-04-26T13:52:30;98410.19;;;7.65;42.49
14790;BME280;7486;51.010;10.366;2023-04-26T13:55:15;98411.97;;;7.80;41.87
14790;BME280;7486;51.010;10.366;2023-04-26T13:58:01;98415.06;;;7.83;41.46
14790;BME280;7486;51.010;10.366;2023-04-26T14:00:46;98412.03;;;8.15;40.38
14790;BME280;7486;51.010;10.366;2023-04-26T14:03:31;98403.47;;;8.28;39.78
14790;BME280;7486;51.010;10.366;2023-04-26T14:06:17;98416.16;;;8.39;40.82
14790;BME280;7486;51.010;10.366;2023-04-26T14:09:04;98363.00;;;8.42;40.23
14790;BME280;7486;51.010;10.366;2023-04-26T14:11:49;98406.59;;;8.81;38.16
14790;BME280;7486;51.010;10.366;2023-04-26T14:14:52;98409.00;;;8.76;40.91
14790;BME280;7486;51.010;10.366;2023-04-26T14:17:37;98398.94;;;8.86;38.96
14790;BME280;7486;51.010;10.366;2023-04-26T14:20:22;98412.84;;;9.01;36.55
14790;BME280;7486;51.010;10.366;2023-04-26T14:23:07;98412.16;;;8.64;37.59
14790;BME280;7486;51.010;10.366;2023-04-26T14:25:53;98415.34;;;8.39;36.80
14790;BME280;7486;51.010;10.366;2023-04-26T14:28:39;98375.91;;;7.51;39.14
14790;BME280;7486;51.010;10.366;2023-04-26T14:31:24;98422.25;;;7.75;40.09
14790;BME280;7486;51.010;10.366;2023-04-26T14:34:09;98423.16;;;7.96;42.52
14790;BME280;7486;51.010;10.366;2023-04-26T14:36:55;98418.31;;;8.00;40.40
14790;BME280;7486;51.010;10.366;2023-04-26T14:39:40;98423.16;;;7.96;40.78
14790;BME280;7486;51.010;10.366;2023-04-26T14:42:25;98414.94;;;8.06;40.66
14790;BME280;7486;51.010;10.366;2023-04-26T14:45:11;98421.94;;;7.99;42.36
14790;BME280;7486;51.010;10.366;2023-04-26T14:47:56;98430.25;;;7.81;40.05
14790;BME280;7486;51.010;10.366;2023-04-26T14:50:42;98427.81;;;7.80;40.87
14790;BME280;7486;51.010;10.366;2023-04-26T14:53:27;98347.47;;;7.46;38.75
14790;BME280;7486;51.010;10.366;2023-04-26T14:56:13;98415.84;;;7.98;41.00
14790;BME280;7486;51.010;10.366;2023-04-26T14:58:58;98418.56;;;8.05;39.74
14790;BME280;7486;51.010;10.366;2023-04-26T15:01:44;98419.44;;;7.61;39.53
14790;BME280;7486;51.010;10.366;2023-04-26T15:04:29;98342.91;;;7.40;40.13
14790;BME280;7486;51.010;10.366;2023-04-26T15:07:14;98412.72;;;7.74;40.16
14790;BME280;7486;51.010;10.366;2023-04-26T15:10:15;98392.53;;;7.51;40.17